Time;durP1;ratioP1;P1;durP2;ratioP2;P2;SDS_P1;SDS_P2;PMS_P1;PMS_P2;Temp;Humidity;BMP_temperature;BMP_pressure;BME280_temperature;BME280_humidity;BME280_pressure;Samples;Min_cycle;Max_cycle;Signal;HPM_P1;HPM_P2
2022/04/08 00:01:48;;;;;;;2.20;0.30;;;;;;;;;;5062018;28;20082;-80
2022/04/08 00:04:14;;;;;;;1.50;0.20;;;;;;;;;;5061806;28;20039;-80
2022/04/08 00:06:39;;;;;;;0.43;0.25;;;;;;;;;;5061283;28;20040;-80
2022/04/08 00:09:04;;;;;;;0.30;0.28;;;;;;;;;;5062034;28;20087;-80
2022/04/08 00:11:29;;;;;;;1.55;0.40;;;;;;;;;;5060887;28;20032;-80
2022/04/08 00:13:55;;;;;;;1.05;0.30;;;;;;;;;;5061609;28;20090;-79
2022/04/08 00:16:20;;;;;;;1.10;0.30;;;;;;;;;;5060469;28;20027;-80
2022/04/08 00:18:45;;;;;;;0.50;0.22;;;;;;;;;;5043940;28;20032;-81
2022/04/08 00:21:11;;;;;;;0.30;0.30;;;;;;;;;;5061236;28;20043;-80
2022/04/08 00:23:36;;;;;;;0.45;0.32;;;;;;;;;;5062236;28;20440;-80
2022/04/08 00:26:01;;;;;;;1.23;0.30;;;;;;;;;;5061578;28;20094;-80
2022/04/08 00:28:26;;;;;;;0.20;0.13;;;;;;;;;;5057307;28;20028;-80
2022/04/08 00:30:52;;;;;;;0.28;0.28;;;;;;;;;;5058523;28;20389;-80
2022/04/08 00:33:17;;;;;;;0.10;0.10;;;;;;;;;;5057505;28;20184;-80
2022/04/08 00:35:42;;;;;;;0.20;0.20;;;;;;;;;;5057068;28;20029;-81
2022/04/08 00:38:07;;;;;;;1.60;0.10;;;;;;;;;;5058135;28;20517;-80
2022/04/08 00:40:34;;;;;;;1.30;0.30;;;;;;;;;;5058137;28;20119;-80
2022/04/08 00:42:59;;;;;;;0.40;0.20;;;;;;;;;;5058528;28;20037;-80
2022/04/08 00:45:25;;;;;;;0.60;0.10;;;;;;;;;;5057440;28;20033;-80
2022/04/08 00:47:50;;;;;;;0.03;0.03;;;;;;;;;;5058441;28;20550;-80
2022/04/08 00:50:15;;;;;;;0.85;0.20;;;;;;;;;;5059063;28;20037;-80
2022/04/08 00:52:41;;;;;;;0.30;0.20;;;;;;;;;;5056925;28;20063;-80
2022/04/08 00:55:06;;;;;;;1.75;0.28;;;;;;;;;;5056628;28;20116;-80
2022/04/08 00:57:32;;;;;;;0.32;0.20;;;;;;;;;;5058691;28;20489;-80
2022/04/08 00:59:57;;;;;;;0.25;0.20;;;;;;;;;;5057766;28;20052;-80
2022/04/08 01:02:22;;;;;;;0.45;0.38;;;;;;;;;;5058258;28;20048;-81
2022/04/08 01:04:48;;;;;;;0.20;0.20;;;;;;;;;;5058182;28;20032;-80
2022/04/08 01:07:13;;;;;;;0.20;0.20;;;;;;;;;;5040363;28;20064;-80
2022/04/08 01:09:38;;;;;;;1.85;0.32;;;;;;;;;;5058028;28;20040;-80
2022/04/08 01:12:03;;;;;;;1.80;0.30;;;;;;;;;;5057973;28;20397;-80
2022/04/08 01:14:29;;;;;;;0.88;0.43;;;;;;;;;;5040193;28;20086;-80
2022/04/08 01:16:54;;;;;;;2.13;0.60;;;;;;;;;;5058280;28;20448;-80
2022/04/08 01:19:19;;;;;;;1.00;0.30;;;;;;;;;;5058066;28;20044;-80
2022/04/08 01:21:45;;;;;;;1.20;0.68;;;;;;;;;;5057844;28;20107;-80
2022/04/08 01:24:14;;;;;;;2.83;0.50;;;;;;;;;;5056332;28;20041;-80
2022/04/08 01:26:40;;;;;;;0.95;0.63;;;;;;;;;;5057355;28;20032;-80
2022/04/08 01:29:05;;;;;;;0.50;0.50;;;;;;;;;;5057731;28;20067;-80
2022/04/08 01:31:30;;;;;;;0.82;0.47;;;;;;;;;;5057933;28;20032;-80
2022/04/08 01:33:55;;;;;;;0.65;0.40;;;;;;;;;;5058360;28;20397;-80
2022/04/08 01:36:21;;;;;;;0.45;0.40;;;;;;;;;;5057545;28;20080;-80
2022/04/08 01:38:46;;;;;;;0.20;0.20;;;;;;;;;;5056011;28;20025;-80
2022/04/08 01:41:11;;;;;;;0.73;0.30;;;;;;;;;;5057359;28;20565;-80
2022/04/08 01:43:37;;;;;;;0.10;0.10;;;;;;;;;;5057045;28;20043;-80
2022/04/08 01:46:02;;;;;;;0.90;0.10;;;;;;;;;;5057418;28;20025;-80
2022/04/08 01:48:27;;;;;;;0.40;0.20;;;;;;;;;;5056679;28;20493;-80
2022/04/08 01:50:53;;;;;;;0.10;0.10;;;;;;;;;;5057445;28;20265;-80
2022/04/08 01:53:18;;;;;;;0.10;0.10;;;;;;;;;;5057237;28;20077;-80
2022/04/08 01:55:43;;;;;;;0.00;0.00;;;;;;;;;;5055358;28;20036;-80
2022/04/08 01:58:10;;;;;;;0.03;0.03;;;;;;;;;;5056402;28;20059;-80
2022/04/08 02:00:35;;;;;;;0.00;0.00;;;;;;;;;;5056869;28;20493;-80
2022/04/08 02:03:01;;;;;;;0.10;0.00;;;;;;;;;;5055794;28;20037;-80
2022/04/08 02:05:26;;;;;;;0.00;0.00;;;;;;;;;;5055917;28;20041;-80
2022/04/08 02:07:53;;;;;;;0.20;0.20;;;;;;;;;;5056364;28;20068;-80
2022/04/08 02:10:18;;;;;;;0.40;0.10;;;;;;;;;;5055950;28;20083;-80
2022/04/08 02:12:43;;;;;;;0.10;0.10;;;;;;;;;;5057021;28;20033;-80
2022/04/08 02:15:09;;;;;;;0.00;0.00;;;;;;;;;;5056459;28;20029;-80
2022/04/08 02:17:34;;;;;;;0.00;0.00;;;;;;;;;;5057056;28;20078;-80
2022/04/08 02:19:59;;;;;;;1.40;0.10;;;;;;;;;;5056767;28;20056;-81
2022/04/08 02:22:24;;;;;;;0.43;0.10;;;;;;;;;;5056537;28;20033;-80
2022/04/08 02:24:50;;;;;;;0.63;0.00;;;;;;;;;;5056535;28;20402;-80
2022/04/08 02:27:15;;;;;;;0.00;0.00;;;;;;;;;;5057252;28;20094;-80
2022/04/08 02:29:41;;;;;;;0.10;0.00;;;;;;;;;;5056689;28;20043;-79
2022/04/08 02:32:06;;;;;;;0.20;0.03;;;;;;;;;;5056266;28;20095;-80
2022/04/08 02:34:36;;;;;;;0.00;0.00;;;;;;;;;;5056084;28;20092;-80
2022/04/08 02:37:02;;;;;;;0.00;0.00;;;;;;;;;;5056129;28;20094;-81
2022/04/08 02:39:27;;;;;;;0.68;0.10;;;;;;;;;;5056768;28;20037;-80
2022/04/08 02:41:52;;;;;;;0.30;0.08;;;;;;;;;;5056248;28;20041;-80
2022/04/08 02:44:17;;;;;;;0.20;0.05;;;;;;;;;;5056326;28;20032;-80
2022/04/08 02:46:42;;;;;;;0.10;0.03;;;;;;;;;;5056008;28;20029;-80
2022/04/08 02:49:08;;;;;;;0.10;0.10;;;;;;;;;;5055927;28;20495;-80
2022/04/08 02:51:33;;;;;;;0.10;0.10;;;;;;;;;;5054740;28;20041;-80
2022/04/08 02:53:58;;;;;;;0.73;0.20;;;;;;;;;;5056249;28;20039;-80
2022/04/08 02:56:23;;;;;;;1.55;0.40;;;;;;;;;;5056312;28;20033;-80
2022/04/08 02:58:49;;;;;;;1.48;0.50;;;;;;;;;;5056458;28;20021;-80
2022/04/08 03:01:14;;;;;;;2.00;0.73;;;;;;;;;;5056010;28;20127;-80
2022/04/08 03:03:39;;;;;;;2.38;0.68;;;;;;;;;;5053972;28;20116;-80
2022/04/08 03:06:04;;;;;;;3.80;0.77;;;;;;;;;;5055307;28;20029;-80
2022/04/08 03:08:30;;;;;;;2.00;0.70;;;;;;;;;;5056224;28;20568;-80
2022/04/08 03:10:55;;;;;;;1.98;0.70;;;;;;;;;;5054701;28;20029;-80
2022/04/08 03:13:20;;;;;;;1.85;0.70;;;;;;;;;;5057003;28;20500;-83
2022/04/08 03:15:45;;;;;;;3.78;0.65;;;;;;;;;;5056394;28;20039;-80
2022/04/08 03:18:11;;;;;;;5.15;1.00;;;;;;;;;;5055576;28;20401;-80
2022/04/08 03:20:36;;;;;;;5.28;0.77;;;;;;;;;;5054212;28;20029;-80
2022/04/08 03:23:01;;;;;;;2.40;1.05;;;;;;;;;;5054992;28;20071;-80
2022/04/08 03:25:26;;;;;;;3.22;1.00;;;;;;;;;;5055804;28;20041;-80
2022/04/08 03:27:52;;;;;;;2.22;0.70;;;;;;;;;;5056023;28;20033;-80
2022/04/08 03:30:17;;;;;;;3.60;0.90;;;;;;;;;;5055663;28;20047;-81
2022/04/08 03:32:42;;;;;;;2.47;0.80;;;;;;;;;;5055961;28;20117;-81
2022/04/08 03:35:07;;;;;;;6.13;0.93;;;;;;;;;;5053641;28;20044;-80
2022/04/08 03:37:32;;;;;;;4.35;0.90;;;;;;;;;;5054924;28;20040;-80
2022/04/08 03:39:58;;;;;;;3.28;0.85;;;;;;;;;;5054519;28;20037;-80
2022/04/08 03:42:23;;;;;;;4.28;0.85;;;;;;;;;;5055721;28;20432;-80
2022/04/08 03:44:49;;;;;;;2.95;0.90;;;;;;;;;;5055663;28;20033;-80
2022/04/08 03:47:14;;;;;;;4.00;1.02;;;;;;;;;;5054864;28;20104;-80
2022/04/08 03:49:40;;;;;;;4.53;0.90;;;;;;;;;;5055562;28;20076;-80
2022/04/08 03:52:05;;;;;;;2.78;0.88;;;;;;;;;;5052932;28;20029;-81
2022/04/08 03:54:30;;;;;;;3.85;1.10;;;;;;;;;;5053366;28;20576;-82
2022/04/08 03:56:55;;;;;;;3.70;0.93;;;;;;;;;;5052009;28;20043;-81
2022/04/08 03:59:22;;;;;;;3.85;1.20;;;;;;;;;;5052976;28;20378;-81
2022/04/08 04:01:47;;;;;;;3.65;0.90;;;;;;;;;;5037223;28;20040;-81
2022/04/08 04:04:12;;;;;;;4.70;0.90;;;;;;;;;;5056213;28;20075;-81
2022/04/08 04:06:37;;;;;;;2.47;1.17;;;;;;;;;;5056631;28;20492;-81
2022/04/08 04:09:03;;;;;;;1.67;0.70;;;;;;;;;;5055638;28;20491;-81
2022/04/08 04:11:28;;;;;;;2.53;0.80;;;;;;;;;;5057043;28;20032;-82
2022/04/08 04:13:53;;;;;;;2.80;0.88;;;;;;;;;;5055217;28;20560;-81
2022/04/08 04:16:19;;;;;;;4.88;1.20;;;;;;;;;;5056547;28;20086;-81
2022/04/08 04:18:44;;;;;;;2.40;0.98;;;;;;;;;;5057156;28;20029;-81
2022/04/08 04:21:09;;;;;;;3.85;1.13;;;;;;;;;;5056830;28;20098;-81
2022/04/08 04:23:34;;;;;;;3.63;0.85;;;;;;;;;;5056076;28;20041;-80
2022/04/08 04:26:00;;;;;;;1.55;0.82;;;;;;;;;;5054879;28;20039;-80
2022/04/08 04:28:25;;;;;;;2.33;0.80;;;;;;;;;;5056477;28;20397;-81
2022/04/08 04:30:53;;;;;;;1.83;0.82;;;;;;;;;;5055528;28;20040;-81
2022/04/08 04:33:18;;;;;;;2.28;0.77;;;;;;;;;;5056034;28;20068;-81
2022/04/08 04:35:43;;;;;;;3.60;0.75;;;;;;;;;;5056128;28;20056;-81
2022/04/08 04:38:08;;;;;;;2.20;1.10;;;;;;;;;;5057847;28;20072;-81
2022/04/08 04:40:34;;;;;;;1.52;0.80;;;;;;;;;;5057142;28;20033;-81
2022/04/08 04:43:00;;;;;;;3.15;1.02;;;;;;;;;;5038419;28;20068;-81
2022/04/08 04:45:25;;;;;;;3.25;0.90;;;;;;;;;;5055977;28;20033;-82
2022/04/08 04:47:50;;;;;;;4.07;0.90;;;;;;;;;;5056308;28;20044;-80
2022/04/08 04:50:16;;;;;;;3.47;1.00;;;;;;;;;;5055393;28;20032;-81
2022/04/08 04:52:41;;;;;;;4.40;0.90;;;;;;;;;;5056752;28;20051;-80
2022/04/08 04:55:06;;;;;;;2.05;0.90;;;;;;;;;;5055162;28;20029;-80
2022/04/08 04:57:31;;;;;;;3.75;0.90;;;;;;;;;;5055655;28;20033;-80
2022/04/08 04:59:57;;;;;;;2.17;0.80;;;;;;;;;;5055373;28;20047;-80
2022/04/08 05:02:22;;;;;;;2.70;0.98;;;;;;;;;;5055324;28;20045;-80
2022/04/08 05:04:47;;;;;;;1.98;0.77;;;;;;;;;;5055343;28;20044;-80
2022/04/08 05:07:12;;;;;;;2.38;0.82;;;;;;;;;;5055445;28;20033;-80
2022/04/08 05:09:38;;;;;;;2.70;0.82;;;;;;;;;;5056424;28;20024;-81
2022/04/08 05:12:03;;;;;;;2.17;0.90;;;;;;;;;;5053740;28;20477;-81
2022/04/08 05:14:28;;;;;;;2.67;0.82;;;;;;;;;;5054844;28;20481;-81
2022/04/08 05:16:55;;;;;;;1.88;0.88;;;;;;;;;;5054031;28;20386;-81
2022/04/08 05:19:21;;;;;;;2.72;1.08;;;;;;;;;;5053734;28;20033;-81
2022/04/08 05:21:46;;;;;;;4.07;0.90;;;;;;;;;;5054017;28;20091;-81
2022/04/08 05:24:11;;;;;;;4.47;1.05;;;;;;;;;;5054861;28;20108;-80
2022/04/08 05:26:36;;;;;;;2.90;1.05;;;;;;;;;;5055786;28;20505;-80
2022/04/08 05:29:02;;;;;;;3.65;1.00;;;;;;;;;;5058979;28;20512;-80
2022/04/08 05:31:27;;;;;;;2.00;0.90;;;;;;;;;;5058552;28;20116;-80
2022/04/08 05:33:52;;;;;;;1.98;0.80;;;;;;;;;;5056814;28;20029;-80
2022/04/08 05:36:18;;;;;;;2.88;1.00;;;;;;;;;;5056817;28;20040;-80
2022/04/08 05:38:43;;;;;;;3.35;0.77;;;;;;;;;;5058794;28;20106;-80
2022/04/08 05:41:08;;;;;;;2.33;0.90;;;;;;;;;;5058518;28;20067;-80
2022/04/08 05:43:34;;;;;;;2.92;0.90;;;;;;;;;;5057274;28;20489;-80
2022/04/08 05:45:59;;;;;;;2.83;1.00;;;;;;;;;;5056989;28;20040;-80
2022/04/08 05:48:24;;;;;;;2.58;1.00;;;;;;;;;;5057523;28;20044;-80
2022/04/08 05:50:49;;;;;;;2.47;0.85;;;;;;;;;;5057367;28;20447;-80
2022/04/08 05:53:15;;;;;;;3.22;0.98;;;;;;;;;;5058200;28;20125;-80
2022/04/08 05:55:40;;;;;;;1.13;0.70;;;;;;;;;;5056862;28;20029;-80
2022/04/08 05:58:05;;;;;;;3.53;0.90;;;;;;;;;;5057268;28;20040;-80
2022/04/08 06:00:34;;;;;;;4.00;1.02;;;;;;;;;;5057423;28;20374;-80
2022/04/08 06:02:59;;;;;;;2.60;1.00;;;;;;;;;;5057683;28;20464;-79
2022/04/08 06:05:24;;;;;;;4.25;1.10;;;;;;;;;;5057786;28;20536;-79
2022/04/08 06:07:49;;;;;;;4.15;1.30;;;;;;;;;;5058441;28;20059;-79
2022/04/08 06:10:18;;;;;;;2.85;0.90;;;;;;;;;;5058272;28;20064;-80
2022/04/08 06:12:43;;;;;;;3.30;1.08;;;;;;;;;;5058355;28;20086;-79
2022/04/08 06:15:09;;;;;;;2.28;0.98;;;;;;;;;;5058150;28;20024;-79
2022/04/08 06:17:34;;;;;;;3.72;1.10;;;;;;;;;;5057195;28;20072;-80
2022/04/08 06:19:59;;;;;;;3.72;1.00;;;;;;;;;;5053591;28;20036;-80
2022/04/08 06:22:24;;;;;;;3.17;0.80;;;;;;;;;;5052388;28;20493;-80
2022/04/08 06:24:50;;;;;;;4.95;0.90;;;;;;;;;;5051845;28;20029;-80
2022/04/08 06:27:15;;;;;;;2.88;1.20;;;;;;;;;;5053508;28;20063;-80
2022/04/08 06:29:40;;;;;;;1.95;0.82;;;;;;;;;;5052796;28;20048;-81
2022/04/08 06:32:05;;;;;;;2.65;1.00;;;;;;;;;;5053849;28;20466;-81
2022/04/08 06:34:31;;;;;;;1.42;0.70;;;;;;;;;;5052403;28;20041;-81
2022/04/08 06:36:56;;;;;;;3.40;0.80;;;;;;;;;;5053366;28;20037;-81
2022/04/08 06:39:21;;;;;;;3.15;0.90;;;;;;;;;;5053467;28;20079;-81
2022/04/08 06:41:46;;;;;;;2.17;0.93;;;;;;;;;;5053397;28;20029;-81
2022/04/08 06:44:12;;;;;;;2.08;0.80;;;;;;;;;;5053211;28;20472;-80
2022/04/08 06:46:37;;;;;;;2.53;0.77;;;;;;;;;;5053747;28;20040;-80
2022/04/08 06:49:02;;;;;;;3.75;0.80;;;;;;;;;;5053346;28;20500;-81
2022/04/08 06:51:28;;;;;;;2.88;0.80;;;;;;;;;;5054169;28;20488;-80
2022/04/08 06:53:53;;;;;;;1.77;0.88;;;;;;;;;;5053649;28;20033;-80
2022/04/08 06:56:19;;;;;;;2.70;0.70;;;;;;;;;;5054285;28;20405;-80
2022/04/08 06:58:45;;;;;;;2.83;0.75;;;;;;;;;;5056828;28;20028;-80
2022/04/08 07:01:13;;;;;;;2.83;0.77;;;;;;;;;;5056775;28;20136;-79
2022/04/08 07:03:38;;;;;;;1.23;0.75;;;;;;;;;;5057630;28;20040;-80
2022/04/08 07:06:03;;;;;;;1.92;0.70;;;;;;;;;;5055747;28;20025;-80
2022/04/08 07:08:29;;;;;;;1.10;0.60;;;;;;;;;;5057312;28;20033;-80
2022/04/08 07:10:54;;;;;;;2.00;0.60;;;;;;;;;;5057992;28;20083;-80
2022/04/08 07:13:19;;;;;;;3.08;0.70;;;;;;;;;;5057277;28;20063;-79
2022/04/08 07:15:44;;;;;;;1.52;0.60;;;;;;;;;;5056725;28;20032;-80
2022/04/08 07:18:09;;;;;;;1.85;0.60;;;;;;;;;;5057448;28;20037;-80
2022/04/08 07:20:35;;;;;;;2.22;0.70;;;;;;;;;;5055434;28;20047;-79
2022/04/08 07:23:02;;;;;;;1.27;0.60;;;;;;;;;;5039247;28;20116;-79
2022/04/08 07:25:27;;;;;;;2.17;0.73;;;;;;;;;;5057507;28;20044;-80
2022/04/08 07:27:53;;;;;;;1.67;0.68;;;;;;;;;;5056905;28;20060;-79
2022/04/08 07:30:18;;;;;;;2.55;0.68;;;;;;;;;;5056388;28;20021;-80
2022/04/08 07:32:43;;;;;;;3.60;0.75;;;;;;;;;;5055903;28;20033;-80
2022/04/08 07:35:08;;;;;;;2.35;0.70;;;;;;;;;;5056690;28;20033;-80
2022/04/08 07:37:34;;;;;;;4.78;0.90;;;;;;;;;;5058578;28;20374;-79
2022/04/08 07:39:59;;;;;;;1.48;0.70;;;;;;;;;;5060559;28;20033;-80
2022/04/08 07:42:24;;;;;;;2.17;0.68;;;;;;;;;;5059603;28;20103;-80
2022/04/08 07:44:50;;;;;;;1.58;0.98;;;;;;;;;;5060138;28;20497;-80
2022/04/08 07:47:15;;;;;;;1.30;0.60;;;;;;;;;;5060271;28;20027;-80
2022/04/08 07:49:42;;;;;;;1.38;0.55;;;;;;;;;;5059828;28;20116;-80
2022/04/08 07:52:07;;;;;;;0.75;0.50;;;;;;;;;;5057387;28;20045;-81
2022/04/08 07:54:32;;;;;;;1.30;0.50;;;;;;;;;;5057544;28;20158;-79
2022/04/08 07:56:59;;;;;;;1.95;0.60;;;;;;;;;;5059938;28;20036;-80
2022/04/08 07:59:24;;;;;;;0.57;0.50;;;;;;;;;;5060013;28;20029;-80
2022/04/08 08:01:49;;;;;;;2.08;0.80;;;;;;;;;;5058537;28;20554;-79
2022/04/08 08:04:15;;;;;;;2.53;0.60;;;;;;;;;;5058294;28;20041;-79
2022/04/08 08:06:40;;;;;;;2.30;0.80;;;;;;;;;;5060790;28;20027;-80
2022/04/08 08:09:06;;;;;;;1.40;0.73;;;;;;;;;;5059667;28;20037;-80
2022/04/08 08:11:31;;;;;;;8.40;4.32;;;;;;;;;;5058164;28;20115;-81
2022/04/08 08:13:57;;;;;;;4.30;1.73;;;;;;;;;;5056620;28;20029;-80
2022/04/08 08:16:23;;;;;;;1.02;0.63;;;;;;;;;;5056082;28;20535;-80
2022/04/08 08:18:50;;;;;;;2.30;0.73;;;;;;;;;;5056194;28;20069;-80
2022/04/08 08:21:15;;;;;;;2.35;0.80;;;;;;;;;;5055938;28;20063;-80
2022/04/08 08:23:40;;;;;;;1.60;0.70;;;;;;;;;;5056313;28;20033;-80
2022/04/08 08:26:05;;;;;;;1.52;0.60;;;;;;;;;;5055806;28;20098;-81
2022/04/08 08:28:31;;;;;;;1.75;0.70;;;;;;;;;;5073151;22;20048;-83
2022/04/08 08:30:56;;;;;;;3.22;0.90;;;;;;;;;;5057497;28;20044;-83
2022/04/08 08:33:21;;;;;;;1.52;0.80;;;;;;;;;;5056354;28;20511;-83
2022/04/08 08:35:47;;;;;;;1.40;0.88;;;;;;;;;;5057499;28;20048;-85
2022/04/08 08:38:12;;;;;;;1.58;0.90;;;;;;;;;;5059974;28;20032;-83
2022/04/08 08:40:38;;;;;;;2.30;0.93;;;;;;;;;;5060370;28;20029;-85
2022/04/08 08:43:03;;;;;;;2.67;0.80;;;;;;;;;;5060670;28;20428;-85
2022/04/08 08:45:32;;;;;;;1.38;0.70;;;;;;;;;;5058055;28;20037;-84
2022/04/08 08:47:57;;;;;;;4.00;1.52;;;;;;;;;;5057540;28;20416;-84
2022/04/08 08:50:22;;;;;;;4.45;1.33;;;;;;;;;;5040303;28;20024;-83
2022/04/08 08:52:48;;;;;;;2.08;0.80;;;;;;;;;;5058438;28;20152;-84
2022/04/08 08:55:33;;;;;;;1.75;1.00;;;;;;;;;;5057843;28;20055;-85
2022/04/08 08:57:58;;;;;;;2.47;1.00;;;;;;;;;;5057502;28;20107;-86
2022/04/08 09:00:24;;;;;;;3.90;1.00;;;;;;;;;;5058242;28;20094;-85
2022/04/08 09:02:49;;;;;;;3.50;1.00;;;;;;;;;;5056241;28;20033;-85
2022/04/08 09:05:14;;;;;;;2.80;1.25;;;;;;;;;;5057694;28;20044;-84
2022/04/08 09:07:39;;;;;;;2.42;1.40;;;;;;;;;;5058922;28;20489;-84
2022/04/08 09:10:05;;;;;;;3.90;1.30;;;;;;;;;;5059497;28;20047;-84
2022/04/08 09:12:30;;;;;;;2.60;1.10;;;;;;;;;;5058649;28;20041;-84
2022/04/08 09:14:56;;;;;;;1.67;1.10;;;;;;;;;;5057144;28;20028;-84
2022/04/08 09:17:21;;;;;;;5.22;1.80;;;;;;;;;;5039928;28;20036;-84
2022/04/08 09:19:46;;;;;;;4.63;1.52;;;;;;;;;;5055781;28;20039;-84
2022/04/08 09:22:12;;;;;;;2.20;1.10;;;;;;;;;;5055797;28;20039;-85
2022/04/08 09:24:37;;;;;;;3.10;1.00;;;;;;;;;;5056715;28;20044;-85
2022/04/08 09:27:02;;;;;;;1.98;0.98;;;;;;;;;;5054084;28;20025;-84
2022/04/08 09:29:27;;;;;;;2.45;1.10;;;;;;;;;;5055691;28;20047;-83
2022/04/08 09:31:53;;;;;;;5.00;1.20;;;;;;;;;;5055145;28;20041;-84
2022/04/08 09:34:18;;;;;;;3.55;1.23;;;;;;;;;;5056234;28;20044;-84
2022/04/08 09:36:43;;;;;;;3.33;1.15;;;;;;;;;;5055438;28;20043;-86
2022/04/08 09:39:12;;;;;;;2.55;1.25;;;;;;;;;;5056906;28;20059;-85
2022/04/08 09:41:40;;;;;;;1.85;1.15;;;;;;;;;;5055323;28;20043;-84
2022/04/08 09:44:05;;;;;;;2.30;1.20;;;;;;;;;;5056473;28;20087;-84
2022/04/08 09:46:31;;;;;;;3.08;1.10;;;;;;;;;;5055988;28;20033;-84
2022/04/08 09:48:56;;;;;;;3.40;1.20;;;;;;;;;;5056524;28;20412;-85
2022/04/08 09:51:21;;;;;;;3.83;1.30;;;;;;;;;;5057026;28;20060;-82
2022/04/08 09:53:46;;;;;;;2.72;1.45;;;;;;;;;;5057898;28;20056;-83
2022/04/08 09:56:12;;;;;;;4.70;2.47;;;;;;;;;;5055533;28;20029;-86
2022/04/08 09:58:37;;;;;;;2.95;1.30;;;;;;;;;;5038280;28;20125;-85
2022/04/08 10:01:02;;;;;;;3.05;1.10;;;;;;;;;;5055008;28;20037;-86
2022/04/08 10:03:27;;;;;;;2.13;0.90;;;;;;;;;;5056763;28;20041;-85
2022/04/08 10:05:53;;;;;;;2.80;1.05;;;;;;;;;;5039424;28;20485;-85
2022/04/08 10:08:18;;;;;;;2.67;1.05;;;;;;;;;;5043063;28;20043;-85
2022/04/08 10:10:43;;;;;;;2.25;1.10;;;;;;;;;;5057485;28;20056;-84
2022/04/08 10:13:08;;;;;;;1.52;1.08;;;;;;;;;;5056488;28;20037;-85
2022/04/08 10:15:34;;;;;;;8.27;1.50;;;;;;;;;;5039314;28;20055;-85
2022/04/08 10:17:59;;;;;;;3.40;1.30;;;;;;;;;;5055163;28;20036;-85
2022/04/08 10:20:24;;;;;;;2.38;1.20;;;;;;;;;;5055618;28;20528;-83
2022/04/08 10:22:51;;;;;;;4.00;1.17;;;;;;;;;;5056729;28;20029;-83
2022/04/08 10:25:16;;;;;;;1.88;1.00;;;;;;;;;;5057314;28;20043;-84
2022/04/08 10:27:43;;;;;;;3.00;1.23;;;;;;;;;;5057324;28;20029;-84
2022/04/08 10:30:09;;;;;;;2.63;1.30;;;;;;;;;;5038480;28;20033;-83
2022/04/08 10:32:34;;;;;;;3.33;1.60;;;;;;;;;;5055415;28;20044;-83
2022/04/08 10:34:59;;;;;;;3.70;1.30;;;;;;;;;;5056135;28;20036;-84
2022/04/08 10:37:24;;;;;;;3.67;1.30;;;;;;;;;;5056273;28;20111;-83
2022/04/08 10:39:49;;;;;;;3.05;1.17;;;;;;;;;;5038390;28;20420;-83
2022/04/08 10:42:15;;;;;;;4.35;1.20;;;;;;;;;;5055252;28;20040;-83
2022/04/08 10:44:41;;;;;;;1.38;0.90;;;;;;;;;;5055274;28;20094;-84
2022/04/08 10:47:07;;;;;;;2.70;1.30;;;;;;;;;;5056136;28;20029;-84
2022/04/08 10:49:32;;;;;;;2.75;1.00;;;;;;;;;;5054625;28;20020;-85
2022/04/08 10:51:57;;;;;;;2.72;1.00;;;;;;;;;;5056229;28;20540;-83
2022/04/08 10:54:22;;;;;;;5.30;1.85;;;;;;;;;;5055120;28;20033;-83
2022/04/08 10:56:48;;;;;;;1.98;1.20;;;;;;;;;;5055271;28;20066;-83
2022/04/08 10:59:13;;;;;;;2.80;1.30;;;;;;;;;;5054176;28;20037;-83
2022/04/08 11:01:38;;;;;;;2.63;1.30;;;;;;;;;;5054995;28;20072;-86
2022/04/08 11:04:03;;;;;;;1.98;1.33;;;;;;;;;;5056095;28;20029;-81
2022/04/08 11:06:29;;;;;;;4.47;1.67;;;;;;;;;;5061102;28;20493;-86
2022/04/08 11:08:54;;;;;;;2.33;1.30;;;;;;;;;;5056437;28;20025;-85
2022/04/08 11:11:19;;;;;;;3.53;1.40;;;;;;;;;;5054157;28;20082;-86
2022/04/08 11:13:44;;;;;;;2.67;1.23;;;;;;;;;;5056182;28;20142;-83
2022/04/08 11:16:10;;;;;;;4.53;1.40;;;;;;;;;;5054977;28;20095;-85
2022/04/08 11:18:35;;;;;;;3.45;1.40;;;;;;;;;;5055302;28;20190;-87
2022/04/08 11:21:00;;;;;;;3.28;1.45;;;;;;;;;;5055944;28;20033;-83
2022/04/08 11:23:26;;;;;;;3.47;1.20;;;;;;;;;;5054828;28;20390;-84
2022/04/08 11:25:51;;;;;;;6.78;1.52;;;;;;;;;;5037200;28;20116;-85
2022/04/08 11:28:16;;;;;;;3.35;1.30;;;;;;;;;;5054862;28;20122;-84
2022/04/08 11:30:42;;;;;;;2.28;1.10;;;;;;;;;;5055504;28;20172;-84
2022/04/08 11:33:07;;;;;;;6.53;1.23;;;;;;;;;;5055276;28;20033;-84
2022/04/08 11:35:33;;;;;;;1.92;1.00;;;;;;;;;;5056182;28;20041;-84
2022/04/08 11:37:58;;;;;;;2.95;1.30;;;;;;;;;;5056234;28;20028;-85
2022/04/08 11:40:23;;;;;;;2.33;1.20;;;;;;;;;;5053708;28;20551;-83
2022/04/08 11:42:48;;;;;;;3.22;1.25;;;;;;;;;;5054640;28;20068;-84
2022/04/08 11:45:14;;;;;;;4.53;1.40;;;;;;;;;;5054797;28;20517;-85
2022/04/08 11:47:40;;;;;;;3.03;1.10;;;;;;;;;;5053028;28;20037;-83
2022/04/08 11:50:06;;;;;;;3.38;1.25;;;;;;;;;;5052801;28;20060;-85
2022/04/08 11:52:31;;;;;;;4.72;1.38;;;;;;;;;;5055756;28;20559;-82
2022/04/08 11:54:59;;;;;;;2.78;1.60;;;;;;;;;;5037492;28;20025;-84
2022/04/08 11:57:24;;;;;;;2.38;1.35;;;;;;;;;;5055579;28;20096;-85
2022/04/08 11:59:50;;;;;;;2.63;1.20;;;;;;;;;;5054533;28;20071;-85
2022/04/08 12:02:15;;;;;;;3.97;1.48;;;;;;;;;;5053371;28;20033;-84
2022/04/08 12:04:40;;;;;;;2.47;1.00;;;;;;;;;;5054155;28;20049;-84
2022/04/08 12:07:06;;;;;;;3.42;1.20;;;;;;;;;;5036688;28;20125;-86
2022/04/08 12:09:31;;;;;;;3.65;1.20;;;;;;;;;;5036890;28;20037;-84
2022/04/08 12:11:57;;;;;;;3.35;1.30;;;;;;;;;;5053273;28;20036;-82
2022/04/08 12:14:23;;;;;;;2.75;1.23;;;;;;;;;;5054978;28;20037;-83
2022/04/08 12:16:48;;;;;;;1.65;1.02;;;;;;;;;;5053036;28;20503;-84
2022/04/08 12:19:14;;;;;;;3.60;1.70;;;;;;;;;;5054640;28;20409;-86
2022/04/08 12:21:39;;;;;;;2.47;1.35;;;;;;;;;;5054070;28;20041;-86
2022/04/08 12:24:05;;;;;;;1.58;1.00;;;;;;;;;;5055464;28;20519;-83
2022/04/08 12:26:32;;;;;;;2.00;1.10;;;;;;;;;;5056590;28;20028;-84
2022/04/08 12:28:57;;;;;;;3.53;1.20;;;;;;;;;;5057540;28;20041;-84
2022/04/08 12:31:23;;;;;;;3.33;1.20;;;;;;;;;;5058691;28;20447;-84
2022/04/08 12:33:49;;;;;;;2.63;1.25;;;;;;;;;;5057097;28;20040;-85
2022/04/08 12:36:14;;;;;;;1.92;1.05;;;;;;;;;;5056593;28;20025;-85
2022/04/08 12:38:39;;;;;;;2.30;1.30;;;;;;;;;;5057177;28;20052;-83
2022/04/08 12:41:05;;;;;;;4.80;1.40;;;;;;;;;;5057470;28;20489;-84
2022/04/08 12:43:30;;;;;;;2.30;1.02;;;;;;;;;;5055212;28;20037;-83
2022/04/08 12:45:56;;;;;;;4.40;1.10;;;;;;;;;;5038371;28;20039;-83
2022/04/08 12:48:21;;;;;;;1.50;1.00;;;;;;;;;;5056191;28;20133;-83
2022/04/08 12:50:46;;;;;;;3.90;1.23;;;;;;;;;;5055231;28;20064;-83
2022/04/08 12:53:11;;;;;;;2.65;2.00;;;;;;;;;;5056024;28;20087;-82
2022/04/08 12:55:37;;;;;;;2.50;1.42;;;;;;;;;;5054376;28;20040;-84
2022/04/08 12:58:02;;;;;;;6.68;3.58;;;;;;;;;;5054542;28;20108;-83
2022/04/08 13:00:27;;;;;;;6.70;4.95;;;;;;;;;;5059768;28;20051;-82
2022/04/08 13:02:52;;;;;;;17.23;12.68;;;;;;;;;;5062363;28;20564;-82
2022/04/08 13:05:18;;;;;;;13.07;8.80;;;;;;;;;;5054087;28;20103;-84
2022/04/08 13:07:43;;;;;;;3.00;2.20;;;;;;;;;;5056499;28;20528;-84
2022/04/08 13:10:08;;;;;;;3.08;1.67;;;;;;;;;;5056433;28;20041;-84
2022/04/08 13:12:35;;;;;;;3.83;2.25;;;;;;;;;;5054472;28;20037;-84
2022/04/08 13:15:00;;;;;;;4.32;2.38;;;;;;;;;;5055739;28;20155;-86
2022/04/08 13:17:26;;;;;;;1.85;1.25;;;;;;;;;;5054246;28;20052;-84
2022/04/08 13:19:51;;;;;;;8.32;1.38;;;;;;;;;;5054441;28;20029;-85
2022/04/08 13:22:17;;;;;;;3.58;1.50;;;;;;;;;;5055770;28;20036;-86
2022/04/08 13:24:43;;;;;;;4.78;1.60;;;;;;;;;;5054263;28;20039;-86
2022/04/08 13:27:08;;;;;;;2.92;1.40;;;;;;;;;;5055450;28;20111;-84
2022/04/08 13:29:34;;;;;;;1.30;1.10;;;;;;;;;;5054737;28;20062;-85
2022/04/08 13:31:59;;;;;;;2.67;1.50;;;;;;;;;;5054485;28;20032;-86
2022/04/08 13:34:24;;;;;;;2.38;1.40;;;;;;;;;;5054461;28;20095;-86
2022/04/08 13:36:49;;;;;;;2.70;1.23;;;;;;;;;;5055540;28;20043;-86
2022/04/08 13:39:15;;;;;;;3.03;1.50;;;;;;;;;;5054720;28;20028;-86
2022/04/08 13:41:42;;;;;;;2.35;1.10;;;;;;;;;;5055721;28;20025;-85
2022/04/08 13:44:07;;;;;;;1.27;1.00;;;;;;;;;;5054967;28;20497;-84
2022/04/08 13:46:33;;;;;;;3.25;1.73;;;;;;;;;;5054571;28;20039;-82
2022/04/08 13:48:58;;;;;;;1.70;1.10;;;;;;;;;;5056254;28;20400;-86
2022/04/08 13:51:24;;;;;;;3.15;1.00;;;;;;;;;;5053786;28;20033;-83
2022/04/08 13:53:49;;;;;;;1.67;0.90;;;;;;;;;;5054781;28;20037;-83
2022/04/08 13:56:14;;;;;;;3.13;1.52;;;;;;;;;;5053042;28;20432;-84
2022/04/08 13:58:39;;;;;;;2.08;1.10;;;;;;;;;;5061851;28;20040;-85
2022/04/08 14:01:05;;;;;;;3.47;1.00;;;;;;;;;;5053829;28;20486;-84
2022/04/08 14:03:30;;;;;;;2.72;1.00;;;;;;;;;;5053155;28;20033;-85
2022/04/08 14:05:55;;;;;;;1.30;0.93;;;;;;;;;;5054239;28;20117;-85
2022/04/08 14:08:20;;;;;;;3.70;1.67;;;;;;;;;;5054408;28;20028;-84
2022/04/08 14:10:46;;;;;;;1.00;0.80;;;;;;;;;;5057719;28;20036;-86
2022/04/08 14:13:12;;;;;;;1.40;0.93;;;;;;;;;;5042860;28;20492;-85
2022/04/08 14:15:37;;;;;;;4.57;1.30;;;;;;;;;;5059025;28;20025;-86
2022/04/08 14:18:02;;;;;;;1.02;0.70;;;;;;;;;;5042401;28;20437;-86
2022/04/08 14:20:28;;;;;;;3.03;0.90;;;;;;;;;;5059903;28;20025;-86
2022/04/08 14:22:53;;;;;;;3.70;0.98;;;;;;;;;;5059019;28;20204;-85
2022/04/08 14:25:18;;;;;;;1.60;0.95;;;;;;;;;;5058975;28;20029;-84
2022/04/08 14:27:44;;;;;;;4.15;3.00;;;;;;;;;;5079778;22;20507;-80
2022/04/08 14:30:09;;;;;;;3.22;2.47;;;;;;;;;;5056805;28;20051;-80
2022/04/08 14:32:36;;;;;;;3.78;1.20;;;;;;;;;;5058176;28;20401;-81